Alexander, West Virginia
Current Conditions -  °F | °C
As of 12:35 AM on Sunday 23 Nov 2014 (Local Time) from KW22 Reporting Station
Broken Clouds Broken Clouds  
Wind Chill: 48°   Ceiling: 9000
Heat Index: 48°   Visibility: 10mi
Dew Point: 21°   Wind: 0mph
Humidity: 34%   Direction: NA
Pressure: 30.15"   Gusts: NA
Location:  38.8347°N, 80.2578°W
Report Text: KW22 230535Z AUTO 00000KT 10SM BKN090 09/M06 A3015 RMK AO2
Loading
Personal Weather Stations






























Interactive Weather Map New forecast layout! Learn more

10-Day Weather Forecast

Advertisements
Track Severe Weather on mobile